Akiak, AK

8:03 AM AKDT on August 01, 2014 (GMT -0800)
Kwethluk AP, Kwethluk, AK (PFKW) Elev 26 ft | 60.79 °N, 161.44 °W | Change Station

Current weather conditions updated 7 minutes ago

Overcast
Overcast
53 °F
Feels Like 53 °F
N
10
Wind Variable Wind from SSW

Today is forecast to be Cooler than yesterday. Mainly cloudy and rainy.

Today
High -- | Low -- °F
--% Chance of Precip.
Yesterday
High -- | Low -- °F
Precip. -- in
6:20 AM 11:20 PM
Waxing Crescent, 27% visible
Pressure 30.18 in
Visibility 1.8 miles
Clouds Overcast 400 ft
Dew Point 52 °F
Humidity 96%
Rainfall 0.39 in
Snow Depth Not available.
UV 0 out of 12
Pollen Not available.
Air Quality Not available.
Flu Activity Not available.
METAR PFKW 011556Z AUTO 21009KT 1 3/4SM BR OVC004 12/11 A3018 RMK AO2 RAE53 SLP220 P0001 T01170111 $

More Conditions Fewer Conditions

Pressure 30.18 in
Visibility 1.8 miles
Clouds Overcast 400 ft
Dew Point 52 °F
Humidity 96%
Rainfall 0.39 in
Snow Depth Not available.
UV 0 out of 12
Pollen Not available.
Air Quality Not available.
Flu Activity Not available.
METAR PFKW 011556Z AUTO 21009KT 1 3/4SM BR OVC004 12/11 A3018 RMK AO2 RAE53 SLP220 P0001 T01170111 $

More Conditions Fewer Conditions

10-Day Weather Forecast

Almanac

Astronomy

Aug. 01, 2014 Rise Set
Actual Time 6:20 AM AKDT 11:20 PM AKDT
Civil Twilight 5:15 AM AKDT 12:23 AM AKDT
Nautical Twilight 3:23 AM AKDT 2:18 AM AKDT
Astronomical Twilight Sun does not rise Sun does not rise
Moon 1:44 PM AKDT 12:01 AM AKDT
Length of Visible Light 19h 07m
Length of Day
17h 00m
Tomorrow will be 5m 9s shorter.
Waxing Crescent, 27% of the Moon is Illuminated
Today
Waxing Crescent
Aug 3
First Quarter
Aug 10
Full
Aug 17
Last Quarter
Aug 25
New

Today's Extremes

State Highs State Lows

Community

WunderPhotos

Upload Photos

1,739,621 photos uploaded!

Nearby

Snow Depth

Station Depth Elevation
Rocky Point 1 in 500 ft
Mcneil Canyon 1 in 1320 ft
Port Graham 0 in 300 ft
MF Bradley River 222 in 2300 ft
Point Mackenzie 1 in 200 ft

Earthquake Activity

City Distance Mag. Time & Date
No recent earthquake activity has been reported nearby.
Minimum magnitude displayed is 2.5.

Coastal Water Temperatures

Place Temperature
No Stations Reporting

Nearby Weather Stations

There are no personal weather stations in this area.